Time;durP1;ratioP1;P1;durP2;ratioP2;P2;SDS_P1;SDS_P2;PMS_P1;PMS_P2;Temp;Humidity;BMP_temperature;BMP_pressure;BME280_temperature;BME280_humidity;BME280_pressure;Samples;Min_cycle;Max_cycle;Signal;HPM_P1;HPM_P2
2021/08/02 00:01:31;;;;;;;7.05;2.92;;;;;;;15.73;87.71;100885.16;5010825;28;20526;-70
2021/08/02 00:04:02;;;;;;;6.75;2.92;;;;;;;15.68;87.22;100880.94;5005480;28;20053;-70
2021/08/02 00:06:39;;;;;;;10.70;3.05;;;;;;;15.57;87.13;100877.00;5012510;28;20046;-70
2021/08/02 00:09:07;;;;;;;11.95;2.63;;;;;;;15.55;87.23;100885.78;5003622;28;20530;-70
2021/08/02 00:11:35;;;;;;;9.93;3.60;;;;;;;15.57;87.48;100888.38;5005581;28;20057;-70
2021/08/02 00:14:07;;;;;;;10.02;3.08;;;;;;;15.52;87.89;100887.69;5002182;28;20486;-70
2021/08/02 00:16:36;;;;;;;6.57;2.78;;;;;;;15.57;87.61;100892.75;5002947;28;20594;-70
2021/08/02 00:19:03;;;;;;;8.80;3.53;;;;;;;15.50;88.00;100892.13;5010409;28;20054;-70
2021/08/02 00:21:29;;;;;;;14.30;2.88;;;;;;;15.45;88.00;100889.66;5000117;28;20047;-70
2021/08/02 00:23:57;;;;;;;10.55;3.33;;;;;;;15.48;88.55;100899.19;5000322;28;20085;-70
2021/08/02 00:26:23;;;;;;;7.63;3.03;;;;;;;15.47;88.55;100898.34;5004014;28;20042;-70
2021/08/02 00:28:51;;;;;;;12.10;2.72;;;;;;;15.48;88.90;100894.81;5005717;28;20053;-69
2021/08/02 00:31:18;;;;;;;9.70;2.45;;;;;;;15.46;89.18;100901.88;5003874;28;20053;-70
2021/08/02 00:33:45;;;;;;;13.73;3.33;;;;;;;15.48;88.75;100897.44;4996911;28;20053;-70
2021/08/02 00:36:21;;;;;;;9.52;3.13;;;;;;;15.43;88.61;100901.97;5010430;28;20053;-70
2021/08/02 00:38:52;;;;;;;11.80;3.80;;;;;;;15.41;88.33;100900.31;5003355;28;20136;-70
2021/08/02 00:41:25;;;;;;;9.88;2.38;;;;;;;15.39;88.61;100903.00;5005165;28;20122;-69
2021/08/02 00:44:42;;;;;;;10.63;2.88;;;;;;;15.38;88.74;100901.28;4999985;28;20054;-69
2021/08/02 00:47:16;;;;;;;10.13;3.35;;;;;;;15.37;88.94;100899.59;5002649;28;20092;-69
2021/08/02 00:49:48;;;;;;;8.77;3.42;;;;;;;15.32;89.13;100899.75;5007812;28;20054;-68
2021/08/02 00:52:15;;;;;;;11.95;3.50;;;;;;;15.34;88.65;100891.81;5004794;28;20046;-69
2021/08/02 00:54:42;;;;;;;7.57;2.88;;;;;;;15.28;89.20;100892.06;5005857;28;20424;-69
2021/08/02 00:57:11;;;;;;;6.13;2.88;;;;;;;15.28;88.50;100898.16;5006418;28;20050;-69
2021/08/02 00:59:39;;;;;;;14.27;3.42;;;;;;;15.27;88.46;100895.59;5003827;28;20054;-69
2021/08/02 01:02:08;;;;;;;11.40;3.60;;;;;;;15.23;88.69;100903.56;5007162;28;20054;-69
2021/08/02 01:04:37;;;;;;;9.23;2.78;;;;;;;15.23;88.73;100900.09;4998104;28;20046;-69
2021/08/02 01:07:07;;;;;;;8.15;2.97;;;;;;;15.22;88.33;100903.63;5001017;28;20507;-69
2021/08/02 01:09:37;;;;;;;10.02;3.17;;;;;;;15.20;88.32;100906.31;5005325;28;20073;-69
2021/08/02 01:12:07;;;;;;;10.02;2.83;;;;;;;15.18;88.05;100908.13;5003403;28;20050;-68
2021/08/02 01:14:35;;;;;;;9.65;3.70;;;;;;;15.14;88.07;100916.97;5005868;28;20060;-69
2021/08/02 01:17:02;;;;;;;10.77;3.17;;;;;;;15.10;88.19;100910.16;5004358;28;20053;-68
2021/08/02 01:19:29;;;;;;;14.52;3.25;;;;;;;15.06;88.07;100903.31;5005072;28;20050;-68
2021/08/02 01:22:01;;;;;;;7.40;3.50;;;;;;;14.99;88.27;100901.81;5001332;28;20101;-68
2021/08/02 01:24:29;;;;;;;10.10;3.47;;;;;;;14.98;88.76;100905.34;5002813;28;20140;-68
2021/08/02 01:27:28;;;;;;;8.75;2.83;;;;;;;14.95;88.78;100910.69;4996141;28;20096;-68
2021/08/02 01:30:21;;;;;;;11.50;3.85;;;;;;;14.91;88.77;100905.56;4997924;28;20578;-68
2021/08/02 01:32:49;;;;;;;8.57;2.80;;;;;;;14.89;88.21;100911.75;5004149;28;20049;-69
2021/08/02 01:35:16;;;;;;;8.82;3.50;;;;;;;14.86;88.39;100912.72;4999126;28;20057;-68
2021/08/02 01:37:44;;;;;;;11.13;3.60;;;;;;;14.82;88.98;100910.25;4999986;28;20042;-69
2021/08/02 01:40:13;;;;;;;6.78;3.25;;;;;;;14.75;89.36;100907.88;5000803;28;20050;-68
2021/08/02 01:42:40;;;;;;;12.57;3.50;;;;;;;14.76;89.40;100911.31;5004998;28;20137;-69
2021/08/02 01:45:08;;;;;;;10.98;3.50;;;;;;;14.75;89.28;100907.00;5006016;28;20523;-69
2021/08/02 01:47:45;;;;;;;9.45;3.90;;;;;;;14.71;89.92;100902.78;5002475;28;20050;-68
2021/08/02 01:50:22;;;;;;;10.90;4.13;;;;;;;14.69;89.96;100899.34;5005887;28;20096;-66
2021/08/02 01:52:57;;;;;;;9.38;3.85;;;;;;;14.69;90.36;100915.06;5005681;28;20197;-69
2021/08/02 01:55:25;;;;;;;10.27;4.00;;;;;;;14.68;90.51;100911.56;5000835;28;20041;-68
2021/08/02 01:57:57;;;;;;;9.15;3.88;;;;;;;14.67;90.15;100903.78;5005971;28;20577;-68
2021/08/02 02:00:24;;;;;;;10.25;4.68;;;;;;;14.66;90.89;100915.13;4998006;28;20061;-68
2021/08/02 02:02:59;;;;;;;13.40;4.53;;;;;;;14.67;90.86;100916.88;5001657;28;20495;-69
2021/08/02 02:05:32;;;;;;;16.35;4.03;;;;;;;14.72;90.62;100909.72;5002060;28;20068;-68
2021/08/02 02:08:05;;;;;;;13.73;4.63;;;;;;;14.74;90.55;100916.63;5003700;28;20134;-68
2021/08/02 02:10:38;;;;;;;11.63;4.22;;;;;;;14.69;90.75;100915.91;4998366;28;20050;-69
2021/08/02 02:13:06;;;;;;;9.80;4.32;;;;;;;14.72;90.58;100925.44;5004712;28;20068;-69
2021/08/02 02:15:33;;;;;;;10.68;4.20;;;;;;;14.72;90.66;100925.44;5000374;28;20049;-69
2021/08/02 02:18:02;;;;;;;11.43;4.75;;;;;;;14.69;90.88;100920.31;4999973;28;20046;-69
2021/08/02 02:20:32;;;;;;;11.32;4.40;;;;;;;14.67;91.02;100928.22;5006316;28;20054;-69
2021/08/02 02:22:59;;;;;;;11.57;4.10;;;;;;;14.67;91.28;100930.84;5005378;28;20049;-68
2021/08/02 02:25:27;;;;;;;13.88;5.25;;;;;;;14.70;90.72;100930.72;4999554;28;20650;-69
2021/08/02 02:27:55;;;;;;;10.52;4.57;;;;;;;14.69;91.03;100926.38;5004905;28;20041;-69
2021/08/02 02:30:21;;;;;;;14.00;5.15;;;;;;;14.68;90.90;100921.19;5002395;28;20467;-69
2021/08/02 02:32:49;;;;;;;11.57;5.28;;;;;;;14.67;90.93;100919.50;4999452;28;20536;-69
2021/08/02 02:35:17;;;;;;;10.45;4.45;;;;;;;14.64;90.83;100912.56;4994785;28;20104;-68
2021/08/02 02:37:44;;;;;;;10.52;4.25;;;;;;;14.64;90.64;100915.19;5003993;28;20096;-69
2021/08/02 02:40:12;;;;;;;10.95;5.82;;;;;;;14.64;90.13;100916.94;5004716;28;20053;-70
2021/08/02 02:42:39;;;;;;;9.95;4.57;;;;;;;14.62;89.75;100915.22;4998972;28;20459;-69
2021/08/02 02:45:08;;;;;;;9.60;4.82;;;;;;;14.58;89.81;100917.97;4994320;28;20050;-69
2021/08/02 02:47:36;;;;;;;13.25;4.65;;;;;;;14.57;90.33;100922.38;5002496;28;20595;-69
2021/08/02 02:50:04;;;;;;;11.82;5.53;;;;;;;14.56;90.27;100919.81;5001324;28;20056;-69
2021/08/02 02:52:31;;;;;;;17.88;4.18;;;;;;;14.56;90.74;100922.44;4999328;28;20069;-69
2021/08/02 02:54:59;;;;;;;11.63;4.70;;;;;;;14.55;91.16;100928.56;5007021;28;20046;-69
2021/08/02 02:57:26;;;;;;;10.43;4.68;;;;;;;14.51;91.28;100922.59;5006755;28;20096;-68
2021/08/02 02:59:52;;;;;;;12.05;5.43;;;;;;;14.51;91.66;100924.34;5003774;28;20043;-69
2021/08/02 03:02:22;;;;;;;12.75;4.82;;;;;;;14.50;91.42;100926.13;5009506;28;20527;-68
2021/08/02 03:04:57;;;;;;;10.98;5.25;;;;;;;14.51;91.33;100922.59;4999603;28;20065;-69
2021/08/02 03:07:25;;;;;;;9.57;5.20;;;;;;;14.52;91.02;100924.31;5010670;28;20042;-69
2021/08/02 03:09:52;;;;;;;9.18;5.72;;;;;;;14.46;90.99;100914.91;4999620;28;20049;-69
2021/08/02 03:12:19;;;;;;;9.45;5.18;;;;;;;14.49;91.46;100916.53;5012556;28;20500;-69
2021/08/02 03:14:45;;;;;;;13.15;6.25;;;;;;;14.51;91.26;100916.47;5004950;28;20115;-69
2021/08/02 03:17:12;;;;;;;12.00;5.72;;;;;;;14.54;91.18;100921.63;5003098;28;20081;-69
2021/08/02 03:19:39;;;;;;;10.98;5.82;;;;;;;14.51;91.66;100927.81;5001250;28;20464;-69
2021/08/02 03:22:20;;;;;;;12.75;6.68;;;;;;;14.55;91.21;100923.34;5003301;28;20045;-69
2021/08/02 03:24:49;;;;;;;12.88;6.22;;;;;;;14.57;91.02;100921.53;5006214;28;20050;-69
2021/08/02 03:27:24;;;;;;;14.57;6.05;;;;;;;14.56;91.44;100922.44;5004692;28;20041;-69
2021/08/02 03:29:52;;;;;;;10.55;6.03;;;;;;;14.57;91.59;100926.78;5001210;28;20046;-68
2021/08/02 03:32:21;;;;;;;16.13;6.50;;;;;;;14.61;91.59;100920.50;5008091;28;20420;-69
2021/08/02 03:34:53;;;;;;;10.98;5.68;;;;;;;14.62;91.21;100930.91;5014300;28;20518;-69
2021/08/02 03:37:22;;;;;;;14.30;6.03;;;;;;;14.61;91.16;100926.63;5004083;28;20496;-69
2021/08/02 03:39:50;;;;;;;10.07;6.75;;;;;;;14.64;90.99;100933.50;5007107;28;20042;-68
2021/08/02 03:42:18;;;;;;;10.82;5.97;;;;;;;14.62;90.67;100938.78;5006736;28;20784;-69
2021/08/02 03:44:46;;;;;;;10.48;5.65;;;;;;;14.59;90.81;100936.28;5008207;28;20053;-69
2021/08/02 03:47:13;;;;;;;12.15;5.55;;;;;;;14.63;90.56;100942.25;5003600;28;20052;-69
2021/08/02 03:49:39;;;;;;;13.73;5.97;;;;;;;14.61;90.56;100933.59;5006821;28;20053;-68
2021/08/02 03:52:07;;;;;;;11.27;6.00;;;;;;;14.60;90.89;100938.00;5006072;28;20478;-69
2021/08/02 03:54:34;;;;;;;12.25;6.07;;;;;;;14.59;90.50;100940.63;5003599;28;20053;-69
2021/08/02 03:57:02;;;;;;;13.25;6.20;;;;;;;14.58;90.41;100939.81;5009790;28;20053;-69
2021/08/02 03:59:29;;;;;;;10.93;5.85;;;;;;;14.57;91.10;100938.09;4999350;28;20042;-69
2021/08/02 04:01:56;;;;;;;11.10;6.65;;;;;;;14.56;91.26;100946.00;5003049;28;20054;-69
2021/08/02 04:04:22;;;;;;;11.82;6.20;;;;;;;14.58;90.98;100946.78;5003935;28;20057;-69
2021/08/02 04:06:49;;;;;;;14.18;6.65;;;;;;;14.56;90.95;100946.84;5011732;28;20494;-69
2021/08/02 04:09:16;;;;;;;14.77;6.03;;;;;;;14.56;90.97;100954.69;5003637;28;20049;-68
2021/08/02 04:11:45;;;;;;;10.15;5.97;;;;;;;14.53;91.27;100959.19;5008251;28;20050;-68
2021/08/02 04:14:12;;;;;;;16.55;5.95;;;;;;;14.56;91.32;100964.31;5007179;28;20485;-69
2021/08/02 04:16:39;;;;;;;19.75;7.40;;;;;;;14.54;91.09;100961.72;5006415;28;20145;-69
2021/08/02 04:19:06;;;;;;;14.82;6.93;;;;;;;14.51;91.17;100959.25;5003198;28;20038;-69
2021/08/02 04:21:32;;;;;;;14.23;6.60;;;;;;;14.52;91.46;100965.31;5012246;28;20057;-69
2021/08/02 04:23:59;;;;;;;18.13;7.32;;;;;;;14.48;91.15;100956.72;5006777;28;20077;-68
2021/08/02 04:26:27;;;;;;;14.45;6.60;;;;;;;14.48;91.13;100961.06;5016305;28;20053;-68
2021/08/02 04:28:56;;;;;;;13.02;6.68;;;;;;;14.51;91.31;100967.09;5010641;28;20049;-70
2021/08/02 04:31:24;;;;;;;11.27;6.97;;;;;;;14.53;91.37;100973.09;5003725;28;20045;-69
2021/08/02 04:33:51;;;;;;;17.13;6.90;;;;;;;14.51;91.17;100966.22;5002974;28;20073;-69
2021/08/02 04:36:17;;;;;;;14.85;6.72;;;;;;;14.53;91.19;100972.25;5005361;28;20053;-69
2021/08/02 04:38:44;;;;;;;13.00;6.05;;;;;;;14.51;90.99;100977.56;5009178;28;20046;-69
2021/08/02 04:41:10;;;;;;;11.57;6.45;;;;;;;14.47;91.73;100973.31;5011270;28;20067;-69
2021/08/02 04:43:38;;;;;;;14.27;5.93;;;;;;;14.49;91.41;100970.63;5004110;28;20050;-69
2021/08/02 04:46:05;;;;;;;16.92;6.93;;;;;;;14.46;91.85;100977.72;5004828;28;20049;-69
2021/08/02 04:48:31;;;;;;;16.02;8.32;;;;;;;14.48;91.27;100974.16;5006315;28;20463;-69
2021/08/02 04:50:58;;;;;;;11.25;5.90;;;;;;;14.47;91.36;100978.56;5001451;28;20050;-69
2021/08/02 04:53:24;;;;;;;13.68;6.28;;;;;;;14.48;91.60;100974.16;4990852;28;20060;-68
2021/08/02 04:55:51;;;;;;;14.75;6.55;;;;;;;14.48;91.94;100984.63;5003093;28;20058;-69
2021/08/02 04:58:17;;;;;;;11.63;7.00;;;;;;;14.53;91.83;100982.72;5001189;28;20049;-69
2021/08/02 05:00:46;;;;;;;13.70;6.90;;;;;;;14.53;91.93;100980.97;5005627;28;20087;-69
2021/08/02 05:03:12;;;;;;;12.05;6.75;;;;;;;14.56;91.54;100983.50;5014204;28;20073;-69
2021/08/02 05:05:39;;;;;;;13.98;7.35;;;;;;;14.59;91.24;100977.28;5008869;28;20049;-69
2021/08/02 05:08:05;;;;;;;13.38;6.40;;;;;;;14.60;91.59;100979.88;5003801;28;20058;-68
2021/08/02 05:10:33;;;;;;;14.15;6.15;;;;;;;14.61;91.44;100986.84;5009130;28;20648;-69
2021/08/02 05:12:59;;;;;;;10.98;6.97;;;;;;;14.65;91.28;100989.34;5009735;28;20145;-70
2021/08/02 05:15:26;;;;;;;11.93;6.57;;;;;;;14.68;91.05;100992.72;5010103;28;20064;-69
2021/08/02 05:17:53;;;;;;;14.90;7.03;;;;;;;14.66;91.33;100989.31;5015094;28;20045;-70
2021/08/02 05:20:20;;;;;;;11.25;6.95;;;;;;;14.75;90.82;100988.16;5011264;28;20046;-69
2021/08/02 05:22:47;;;;;;;17.08;7.03;;;;;;;14.79;90.64;100987.16;5021558;28;20095;-69
2021/08/02 05:25:14;;;;;;;17.48;6.50;;;;;;;14.85;90.39;100986.09;5019481;28;20049;-69
2021/08/02 05:27:40;;;;;;;11.90;6.07;;;;;;;14.85;90.26;100984.34;5020627;28;20057;-69
2021/08/02 05:30:08;;;;;;;10.90;6.55;;;;;;;14.88;90.41;100994.72;5014602;28;20046;-69
2021/08/02 05:32:34;;;;;;;13.93;6.50;;;;;;;14.89;89.84;100995.56;5017393;28;20054;-69
2021/08/02 05:35:02;;;;;;;14.40;7.00;;;;;;;14.89;89.24;100993.81;5021405;28;20046;-69
2021/08/02 05:37:28;;;;;;;18.63;6.72;;;;;;;14.91;89.82;100992.00;5018611;28;20057;-69
2021/08/02 05:39:55;;;;;;;11.18;6.63;;;;;;;14.91;89.50;100992.00;5018876;28;20454;-69
2021/08/02 05:42:21;;;;;;;12.63;6.38;;;;;;;14.88;89.44;100992.09;5016833;28;20054;-69
2021/08/02 05:44:48;;;;;;;13.60;6.88;;;;;;;14.86;89.74;100998.31;5005905;28;20041;-69
2021/08/02 05:47:15;;;;;;;16.05;6.88;;;;;;;14.84;89.47;100997.50;5003826;28;20610;-67
2021/08/02 05:49:41;;;;;;;16.17;7.47;;;;;;;14.82;90.02;100994.94;5007566;28;20053;-69
2021/08/02 05:52:09;;;;;;;15.43;6.72;;;;;;;14.79;90.10;100999.38;5011483;28;20054;-68
2021/08/02 05:54:35;;;;;;;14.80;7.35;;;;;;;14.79;90.03;100995.03;5004287;28;20054;-68
2021/08/02 05:57:02;;;;;;;16.77;7.40;;;;;;;14.80;89.62;100994.13;5013094;28;20049;-68
2021/08/02 05:59:29;;;;;;;16.65;6.88;;;;;;;14.85;89.70;100997.44;5014374;28;20077;-68
2021/08/02 06:01:58;;;;;;;11.77;6.82;;;;;;;14.96;89.00;100998.84;5006609;28;20052;-68
2021/08/02 06:04:25;;;;;;;11.48;6.47;;;;;;;15.01;88.98;101016.13;5010274;28;20061;-69
2021/08/02 06:06:53;;;;;;;15.65;6.75;;;;;;;15.05;88.39;101006.38;5003195;28;20046;-68
2021/08/02 06:09:21;;;;;;;13.32;6.63;;;;;;;15.04;88.54;101004.66;5004086;28;20041;-68
2021/08/02 06:11:47;;;;;;;29.50;8.38;;;;;;;15.05;87.89;101001.16;5011848;28;20617;-68
2021/08/02 06:14:14;;;;;;;15.07;6.78;;;;;;;15.10;87.71;101007.09;5011594;28;20050;-65
2021/08/02 06:16:40;;;;;;;13.73;6.88;;;;;;;15.17;87.67;101015.63;5004928;28;20053;-69
2021/08/02 06:19:07;;;;;;;11.82;6.78;;;;;;;15.26;88.40;101019.66;5014018;28;20054;-69
2021/08/02 06:21:34;;;;;;;13.40;6.63;;;;;;;15.30;87.59;101016.88;5012518;28;20073;-68
2021/08/02 06:24:00;;;;;;;15.90;6.50;;;;;;;15.33;87.07;101021.16;5008354;28;20062;-69
2021/08/02 06:26:30;;;;;;;14.23;5.85;;;;;;;15.46;87.04;101027.69;5003564;28;20057;-66
2021/08/02 06:28:56;;;;;;;17.98;7.72;;;;;;;15.54;86.77;101036.13;5005101;28;20543;-69
2021/08/02 06:31:23;;;;;;;15.93;6.70;;;;;;;15.59;85.54;101027.28;5002026;28;20112;-68
2021/08/02 06:33:49;;;;;;;14.18;6.35;;;;;;;15.58;86.47;101033.41;5009459;28;20049;-68
2021/08/02 06:36:17;;;;;;;15.55;5.68;;;;;;;15.65;86.50;101038.41;5007859;28;20131;-69
2021/08/02 06:38:44;;;;;;;15.82;6.50;;;;;;;15.77;85.10;101042.34;5005521;28;20075;-69
2021/08/02 06:41:11;;;;;;;19.77;6.35;;;;;;;15.79;84.71;101037.91;5014295;28;20186;-69
2021/08/02 06:43:38;;;;;;;17.35;6.60;;;;;;;15.69;83.48;101041.75;5010787;28;20050;-68
2021/08/02 06:46:06;;;;;;;13.90;5.90;;;;;;;15.55;84.88;101037.00;5007199;28;20050;-69
2021/08/02 06:48:33;;;;;;;14.93;6.35;;;;;;;15.54;85.56;101036.13;5004058;28;20052;-68
2021/08/02 06:50:59;;;;;;;11.85;6.60;;;;;;;15.58;85.87;101038.66;5010638;28;20042;-69
2021/08/02 06:53:25;;;;;;;13.07;6.13;;;;;;;15.64;85.85;101048.94;5008353;28;20060;-68
2021/08/02 06:55:52;;;;;;;12.40;6.60;;;;;;;15.64;85.50;101052.41;5009049;28;20056;-68
2021/08/02 06:58:19;;;;;;;15.32;6.45;;;;;;;15.57;85.77;101045.69;5017361;28;20061;-68
2021/08/02 07:00:46;;;;;;;12.60;5.72;;;;;;;15.58;84.82;101043.91;5007306;28;20060;-68
2021/08/02 07:03:13;;;;;;;13.80;5.68;;;;;;;15.50;83.61;101052.03;5010202;28;20061;-69
2021/08/02 07:05:40;;;;;;;14.40;5.60;;;;;;;15.45;84.25;101048.72;5005549;28;20063;-70
2021/08/02 07:08:07;;;;;;;11.88;5.53;;;;;;;15.43;84.69;101055.78;5011078;28;20054;-68
2021/08/02 07:10:34;;;;;;;10.40;5.28;;;;;;;15.43;84.69;101061.03;5003271;28;20463;-68
2021/08/02 07:13:00;;;;;;;14.52;6.25;;;;;;;15.46;84.63;101058.31;5002115;28;20978;-69
2021/08/02 07:15:27;;;;;;;14.55;5.90;;;;;;;15.59;85.57;101063.97;5006101;28;20058;-68
2021/08/02 07:17:55;;;;;;;13.82;5.13;;;;;;;15.67;83.51;101067.19;5006215;28;20046;-69
2021/08/02 07:20:21;;;;;;;12.93;4.97;;;;;;;15.65;nan;101061.13;5010432;28;20041;-68
2021/08/02 07:22:47;;;;;;;10.32;5.05;;;;;;;15.69;82.76;101060.97;5016732;28;20451;-69
2021/08/02 07:25:14;;;;;;;11.25;4.43;;;;;;;15.75;82.05;101069.53;5002987;28;20065;-68
2021/08/02 07:27:41;;;;;;;14.25;4.60;;;;;;;15.78;82.02;101067.66;5012538;28;20078;-69
2021/08/02 07:30:09;;;;;;;12.32;5.20;;;;;;;15.85;83.15;101063.94;5000758;28;20037;-67
2021/08/02 07:32:36;;;;;;;15.00;4.93;;;;;;;15.91;83.18;101069.88;5005786;28;20157;-68
2021/08/02 07:35:04;;;;;;;9.05;5.43;;;;;;;16.06;82.74;101061.44;5020447;28;20061;-69
2021/08/02 07:37:30;;;;;;;12.25;5.20;;;;;;;16.25;81.95;101052.88;5013389;28;20050;-68
2021/08/02 07:39:57;;;;;;;10.40;4.63;;;;;;;16.40;81.67;101065.44;5010846;28;20874;-68
2021/08/02 07:42:23;;;;;;;9.98;4.97;;;;;;;16.51;80.99;101064.16;5021056;28;20046;-69
2021/08/02 07:44:50;;;;;;;10.50;4.90;;;;;;;16.55;78.25;101074.47;5017529;28;20411;-68
2021/08/02 07:47:16;;;;;;;13.38;4.25;;;;;;;16.53;79.27;101064.94;5014598;28;20050;-68
2021/08/02 07:49:43;;;;;;;18.58;5.82;;;;;;;16.49;79.49;101072.06;5017703;28;20092;-67
2021/08/02 07:52:10;;;;;;;12.88;4.90;;;;;;;16.43;79.76;101067.91;5011449;28;20061;-68
2021/08/02 07:54:37;;;;;;;16.10;4.80;;;;;;;16.41;80.07;101074.13;5016620;28;20045;-67
2021/08/02 07:57:04;;;;;;;14.93;4.78;;;;;;;16.42;80.27;101067.97;5021770;28;20054;-69
2021/08/02 07:59:30;;;;;;;9.70;4.40;;;;;;;16.44;79.18;101074.88;5016019;28;20056;-68
2021/08/02 08:01:57;;;;;;;9.02;4.65;;;;;;;16.43;79.49;101077.56;5021917;28;20055;-68
2021/08/02 08:04:23;;;;;;;9.13;4.15;;;;;;;16.42;80.22;101070.59;5016936;28;20048;-68
2021/08/02 08:06:50;;;;;;;10.93;4.05;;;;;;;16.46;78.63;101069.59;5005464;28;20049;-68
2021/08/02 08:09:18;;;;;;;9.68;4.00;;;;;;;16.48;77.73;101070.34;5004204;28;20052;-68
2021/08/02 08:11:44;;;;;;;9.48;4.65;;;;;;;16.52;77.43;101073.75;4999251;28;20096;-69
2021/08/02 08:14:10;;;;;;;10.80;4.00;;;;;;;16.60;77.10;101066.41;5007765;28;20042;-68
2021/08/02 08:16:38;;;;;;;7.63;4.22;;;;;;;16.69;76.24;101073.06;5015681;28;20051;-68
2021/08/02 08:19:04;;;;;;;9.07;3.95;;;;;;;16.73;75.56;101074.66;5022973;28;20056;-68
2021/08/02 08:21:35;;;;;;;8.85;4.10;;;;;;;16.78;75.46;101075.31;5017682;28;20061;-69
2021/08/02 08:24:03;;;;;;;11.02;3.65;;;;;;;16.85;77.31;101073.31;5017027;28;20060;-69
2021/08/02 08:26:32;;;;;;;13.88;4.03;;;;;;;16.94;76.26;101058.06;5010458;28;20059;-69
2021/08/02 08:28:58;;;;;;;12.18;3.88;;;;;;;17.01;76.38;101061.31;5009368;28;20046;-69
2021/08/02 08:31:25;;;;;;;9.10;3.88;;;;;;;17.17;76.94;101058.03;5016170;28;20058;-69
2021/08/02 08:33:51;;;;;;;11.30;4.20;;;;;;;17.34;75.08;101063.44;5022550;28;20091;-69
2021/08/02 08:36:18;;;;;;;8.75;4.22;;;;;;;17.49;75.67;101074.22;5018233;28;20052;-69
2021/08/02 08:38:45;;;;;;;7.70;3.88;;;;;;;17.61;74.41;101084.22;5019059;28;20131;-70
2021/08/02 08:41:13;;;;;;;9.30;3.03;;;;;;;17.68;71.24;101085.66;5020176;28;20042;-68
2021/08/02 08:43:41;;;;;;;12.48;3.42;;;;;;;17.63;70.81;101078.88;5017613;28;20060;-70
2021/08/02 08:46:07;;;;;;;8.70;3.15;;;;;;;17.55;73.04;101084.47;5011495;28;20045;-69
2021/08/02 08:48:34;;;;;;;10.75;4.00;;;;;;;17.50;72.04;101075.94;5013988;28;20054;-68
2021/08/02 08:51:03;;;;;;;8.25;3.08;;;;;;;17.51;73.94;101077.66;5013969;28;20045;-68
2021/08/02 08:53:29;;;;;;;8.25;3.40;;;;;;;17.42;74.16;101075.41;5014391;28;20058;-68
2021/08/02 08:55:56;;;;;;;9.70;4.65;;;;;;;17.42;74.08;101073.63;5021068;28;20103;-69
2021/08/02 08:58:22;;;;;;;6.90;3.35;;;;;;;17.52;73.77;101084.59;5019660;28;20049;-68
2021/08/02 09:00:59;;;;;;;8.05;3.72;;;;;;;17.68;73.55;101082.16;5012134;28;20524;-68
2021/08/02 09:03:27;;;;;;;7.40;3.75;;;;;;;17.72;73.72;101074.06;5017932;28;20073;-67
2021/08/02 09:06:01;;;;;;;6.75;3.30;;;;;;;17.72;73.23;101086.38;5014886;28;20500;-67
2021/08/02 09:08:27;;;;;;;8.77;3.38;;;;;;;17.85;71.61;101086.69;5046849;22;20061;-69
2021/08/02 09:10:58;;;;;;;8.68;3.10;;;;;;;18.09;72.53;101078.66;5024329;28;20100;-68
2021/08/02 09:13:30;;;;;;;10.65;3.20;;;;;;;18.36;71.55;101076.53;5038155;28;20049;-69
2021/08/02 09:15:58;;;;;;;7.10;2.28;;;;;;;18.56;71.93;101080.84;5029204;28;20060;-70
2021/08/02 09:18:25;;;;;;;8.60;2.60;;;;;;;18.71;71.05;101076.63;5039751;28;20049;-70
2021/08/02 09:21:03;;;;;;;8.23;2.83;;;;;;;19.08;69.83;101076.66;5040721;28;20470;-69
2021/08/02 09:23:30;;;;;;;5.97;2.00;;;;;;;19.39;67.84;101073.31;5027601;28;20051;-70
2021/08/02 09:25:59;;;;;;;8.60;2.33;;;;;;;19.56;67.11;101075.09;5039922;28;20464;-70
2021/08/02 09:28:26;;;;;;;5.15;1.75;;;;;;;19.63;64.55;101069.50;5035256;28;20052;-70
2021/08/02 09:30:59;;;;;;;5.78;2.00;;;;;;;19.61;64.51;101074.03;5028908;28;20095;-69
2021/08/02 09:33:27;;;;;;;9.63;2.17;;;;;;;19.61;64.36;101077.50;5036397;28;20053;-70
2021/08/02 09:35:54;;;;;;;5.53;1.60;;;;;;;19.82;62.63;101066.75;5037913;28;20045;-70
2021/08/02 09:38:24;;;;;;;8.68;1.65;;;;;;;19.70;64.82;101074.38;5040302;28;20060;-69
2021/08/02 09:40:52;;;;;;;5.32;1.35;;;;;;;19.69;62.46;101080.59;5038421;28;20710;-71
2021/08/02 09:43:23;;;;;;;7.65;1.80;;;;;;;19.55;61.26;101083.94;5039729;28;20048;-70
2021/08/02 09:45:51;;;;;;;6.75;1.35;;;;;;;19.42;61.59;101083.72;5027678;28;20099;-69
2021/08/02 09:48:22;;;;;;;7.47;2.25;;;;;;;19.41;62.60;101082.00;5037416;28;20048;-69
2021/08/02 09:50:50;;;;;;;5.60;1.80;;;;;;;19.38;63.28;101076.88;5038621;28;20068;-69
2021/08/02 09:53:19;;;;;;;4.63;1.20;;;;;;;19.38;63.84;101070.78;5038318;28;20049;-69
2021/08/02 09:55:47;;;;;;;6.72;1.95;;;;;;;19.53;62.75;101075.25;5033056;28;20053;-69
2021/08/02 09:58:18;;;;;;;4.90;1.30;;;;;;;19.64;62.21;101071.19;5027237;28;20414;-69
2021/08/02 10:00:45;;;;;;;6.13;1.75;;;;;;;19.60;60.37;101070.50;5029618;28;20523;-69
2021/08/02 10:03:13;;;;;;;8.02;1.75;;;;;;;19.54;61.67;101071.69;5028274;28;20100;-68
2021/08/02 10:05:42;;;;;;;5.32;1.58;;;;;;;19.60;61.43;101072.31;5033828;28;20052;-69
2021/08/02 10:08:08;;;;;;;5.35;1.55;;;;;;;19.68;59.38;101068.31;5036442;28;20155;-69
2021/08/02 10:10:37;;;;;;;6.32;1.42;;;;;;;19.81;60.38;101070.31;5036358;28;20450;-69
2021/08/02 10:13:04;;;;;;;4.18;1.23;;;;;;;19.99;61.35;101068.53;5026790;28;20045;-70
2021/08/02 10:15:32;;;;;;;7.65;2.20;;;;;;;20.08;60.36;101065.41;5024836;28;20049;-69
2021/08/02 10:18:01;;;;;;;4.30;1.55;;;;;;;20.22;58.63;101067.28;5034305;28;20044;-69
2021/08/02 10:20:29;;;;;;;4.07;1.50;;;;;;;20.32;59.49;101064.97;5020811;28;21194;-69
2021/08/02 10:22:58;;;;;;;6.50;1.35;;;;;;;20.41;60.35;101069.78;5029984;28;20059;-69
2021/08/02 10:25:35;;;;;;;6.25;1.50;;;;;;;20.55;59.50;101068.13;5030180;28;20049;-69
2021/08/02 10:28:13;;;;;;;9.02;1.58;;;;;;;20.69;59.16;101070.84;5033133;28;20045;-68
2021/08/02 10:30:41;;;;;;;4.93;1.27;;;;;;;20.71;58.72;101068.13;5027984;28;20053;-69
2021/08/02 10:33:08;;;;;;;7.03;1.85;;;;;;;20.69;58.22;101060.28;5037545;28;20383;-68
2021/08/02 10:35:40;;;;;;;4.72;1.40;;;;;;;20.59;57.59;101059.09;5033991;28;20057;-68
2021/08/02 10:38:10;;;;;;;6.35;2.05;;;;;;;20.60;57.88;101064.28;5034187;28;20094;-68
2021/08/02 10:40:47;;;;;;;7.53;1.63;;;;;;;20.56;57.37;101059.25;5027670;28;20490;-68
2021/08/02 10:43:25;;;;;;;4.60;1.35;;;;;;;20.66;58.31;101063.09;5036476;28;20099;-68
2021/08/02 10:45:52;;;;;;;5.80;1.40;;;;;;;20.81;57.85;101059.59;5023958;28;20054;-68
2021/08/02 10:48:26;;;;;;;4.20;1.23;;;;;;;20.98;57.69;101060.44;5028831;28;20115;-69
2021/08/02 10:50:53;;;;;;;7.05;1.10;;;;;;;21.03;56.95;101061.00;5040289;28;20049;-68
2021/08/02 10:53:20;;;;;;;6.28;1.98;;;;;;;21.16;56.24;101057.66;5020196;28;20092;-68
2021/08/02 10:55:49;;;;;;;7.03;1.85;;;;;;;21.22;55.23;101051.97;5024222;28;20053;-69
2021/08/02 10:58:26;;;;;;;5.88;1.20;;;;;;;21.30;56.20;101054.19;5024706;28;20046;-69
2021/08/02 11:01:00;;;;;;;5.13;1.20;;;;;;;21.50;55.75;101060.94;5023091;28;20130;-69
2021/08/02 11:03:35;;;;;;;4.85;1.40;;;;;;;21.65;56.25;101060.03;5023344;28;20840;-69
2021/08/02 11:06:09;;;;;;;9.88;1.83;;;;;;;21.86;53.88;101063.16;5033187;28;20056;-70
2021/08/02 11:08:45;;;;;;;2.20;1.08;;;;;;;21.88;53.12;101060.44;5037003;28;20203;-69
2021/08/02 11:11:19;;;;;;;3.53;1.27;;;;;;;21.79;53.74;101059.19;5028669;28;20048;-69
2021/08/02 11:13:46;;;;;;;4.85;1.60;;;;;;;21.80;54.05;101058.25;5029975;28;20058;-69
2021/08/02 11:16:13;;;;;;;6.05;1.65;;;;;;;21.67;53.89;101058.16;5031067;28;20167;-69
2021/08/02 11:18:43;;;;;;;9.73;1.55;;;;;;;21.66;53.66;101055.59;5019969;28;20052;-69
2021/08/02 11:21:21;;;;;;;4.07;1.50;;;;;;;21.67;53.44;101060.78;5032826;28;20041;-68
2021/08/02 11:23:49;;;;;;;6.80;1.30;;;;;;;21.67;54.54;101059.94;5036400;28;20052;-69
2021/08/02 11:26:15;;;;;;;5.28;1.38;;;;;;;21.71;53.14;101053.50;5040139;28;20106;-69